sensor_id;sensor_type;location;lat;lon;timestamp;temperature;humidity
14517;DHT22;7344;50.864;4.362;2023-10-19T00:02:05;17.10;99.90
14517;DHT22;7344;50.864;4.362;2023-10-19T00:04:31;17.00;99.90
14517;DHT22;7344;50.864;4.362;2023-10-19T00:06:58;17.00;99.90
14517;DHT22;7344;50.864;4.362;2023-10-19T00:09:24;17.00;99.90
14517;DHT22;7344;50.864;4.362;2023-10-19T00:11:51;17.00;99.90
14517;DHT22;7344;50.864;4.362;2023-10-19T00:14:18;17.00;99.90
14517;DHT22;7344;50.864;4.362;2023-10-19T00:16:44;17.00;99.90
14517;DHT22;7344;50.864;4.362;2023-10-19T00:19:16;17.00;99.90
14517;DHT22;7344;50.864;4.362;2023-10-19T00:21:45;17.00;99.90
14517;DHT22;7344;50.864;4.362;2023-10-19T00:24:20;17.10;99.90
14517;DHT22;7344;50.864;4.362;2023-10-19T00:26:47;17.10;99.90
14517;DHT22;7344;50.864;4.362;2023-10-19T00:29:19;17.10;99.90
14517;DHT22;7344;50.864;4.362;2023-10-19T00:31:58;17.00;99.90
14517;DHT22;7344;50.864;4.362;2023-10-19T00:34:28;17.00;99.90
14517;DHT22;7344;50.864;4.362;2023-10-19T00:36:56;17.00;99.90
14517;DHT22;7344;50.864;4.362;2023-10-19T00:39:23;16.90;99.90
14517;DHT22;7344;50.864;4.362;2023-10-19T00:41:50;16.90;99.90
14517;DHT22;7344;50.864;4.362;2023-10-19T00:44:16;16.90;99.90
14517;DHT22;7344;50.864;4.362;2023-10-19T00:46:48;17.00;99.90
14517;DHT22;7344;50.864;4.362;2023-10-19T00:49:30;17.00;99.90
14517;DHT22;7344;50.864;4.362;2023-10-19T00:51:58;17.00;99.90
14517;DHT22;7344;50.864;4.362;2023-10-19T00:54:38;17.00;99.90
14517;DHT22;7344;50.864;4.362;2023-10-19T00:57:17;17.00;99.90
14517;DHT22;7344;50.864;4.362;2023-10-19T00:59:48;17.00;99.90
14517;DHT22;7344;50.864;4.362;2023-10-19T01:02:16;17.00;99.90
14517;DHT22;7344;50.864;4.362;2023-10-19T01:05:03;17.00;99.90
14517;DHT22;7344;50.864;4.362;2023-10-19T01:07:32;16.90;99.90
14517;DHT22;7344;50.864;4.362;2023-10-19T01:10:04;16.90;99.90
14517;DHT22;7344;50.864;4.362;2023-10-19T01:12:45;16.90;99.90
14517;DHT22;7344;50.864;4.362;2023-10-19T01:17:59;16.90;99.90
14517;DHT22;7344;50.864;4.362;2023-10-19T01:20:28;17.00;99.90
14517;DHT22;7344;50.864;4.362;2023-10-19T01:23:06;17.00;99.90
14517;DHT22;7344;50.864;4.362;2023-10-19T01:25:57;17.00;99.90
14517;DHT22;7344;50.864;4.362;2023-10-19T01:28:37;17.00;99.90
14517;DHT22;7344;50.864;4.362;2023-10-19T01:31:10;16.90;99.90
14517;DHT22;7344;50.864;4.362;2023-10-19T01:33:56;16.90;99.90
14517;DHT22;7344;50.864;4.362;2023-10-19T01:36:23;16.90;99.90
14517;DHT22;7344;50.864;4.362;2023-10-19T01:38:49;16.90;99.90
14517;DHT22;7344;50.864;4.362;2023-10-19T01:41:15;16.80;99.90
14517;DHT22;7344;50.864;4.362;2023-10-19T01:43:50;16.80;99.90
14517;DHT22;7344;50.864;4.362;2023-10-19T01:46:19;16.80;99.90
14517;DHT22;7344;50.864;4.362;2023-10-19T01:48:55;16.80;99.90
14517;DHT22;7344;50.864;4.362;2023-10-19T01:51:22;16.80;99.90
14517;DHT22;7344;50.864;4.362;2023-10-19T01:53:49;16.80;99.90
14517;DHT22;7344;50.864;4.362;2023-10-19T01:56:16;16.90;99.90
14517;DHT22;7344;50.864;4.362;2023-10-19T01:58:43;16.80;99.90
14517;DHT22;7344;50.864;4.362;2023-10-19T02:01:12;16.80;99.90
14517;DHT22;7344;50.864;4.362;2023-10-19T02:03:42;16.80;99.90
14517;DHT22;7344;50.864;4.362;2023-10-19T02:06:12;16.70;99.90
14517;DHT22;7344;50.864;4.362;2023-10-19T02:09:11;16.70;99.90
14517;DHT22;7344;50.864;4.362;2023-10-19T02:12:03;16.60;99.90
14517;DHT22;7344;50.864;4.362;2023-10-19T02:14:31;16.70;99.90
14517;DHT22;7344;50.864;4.362;2023-10-19T02:16:57;16.60;99.90
14517;DHT22;7344;50.864;4.362;2023-10-19T02:19:26;16.60;99.90
14517;DHT22;7344;50.864;4.362;2023-10-19T02:21:54;16.60;99.90
14517;DHT22;7344;50.864;4.362;2023-10-19T02:24:21;16.50;99.90
14517;DHT22;7344;50.864;4.362;2023-10-19T02:26:50;16.50;99.90
14517;DHT22;7344;50.864;4.362;2023-10-19T02:29:19;16.50;99.90
14517;DHT22;7344;50.864;4.362;2023-10-19T02:31:45;16.40;99.90
14517;DHT22;7344;50.864;4.362;2023-10-19T02:34:13;16.40;99.90
14517;DHT22;7344;50.864;4.362;2023-10-19T02:36:41;16.30;99.90
14517;DHT22;7344;50.864;4.362;2023-10-19T02:39:09;16.30;99.90
14517;DHT22;7344;50.864;4.362;2023-10-19T02:41:36;16.30;99.90
14517;DHT22;7344;50.864;4.362;2023-10-19T02:44:03;16.30;99.90
14517;DHT22;7344;50.864;4.362;2023-10-19T02:46:29;16.20;99.90
14517;DHT22;7344;50.864;4.362;2023-10-19T02:48:55;16.20;99.90
14517;DHT22;7344;50.864;4.362;2023-10-19T02:51:22;16.20;99.90
14517;DHT22;7344;50.864;4.362;2023-10-19T02:53:47;16.10;99.90
14517;DHT22;7344;50.864;4.362;2023-10-19T02:56:15;16.20;99.90
14517;DHT22;7344;50.864;4.362;2023-10-19T02:58:45;16.10;99.90
14517;DHT22;7344;50.864;4.362;2023-10-19T03:01:19;16.10;99.90
14517;DHT22;7344;50.864;4.362;2023-10-19T03:03:51;16.10;99.90
14517;DHT22;7344;50.864;4.362;2023-10-19T03:06:23;16.10;99.90
14517;DHT22;7344;50.864;4.362;2023-10-19T03:08:49;16.10;99.90
14517;DHT22;7344;50.864;4.362;2023-10-19T03:11:29;16.10;99.90
14517;DHT22;7344;50.864;4.362;2023-10-19T03:13:55;16.20;99.90
14517;DHT22;7344;50.864;4.362;2023-10-19T03:16:23;16.20;99.90
14517;DHT22;7344;50.864;4.362;2023-10-19T03:18:49;16.20;99.90
14517;DHT22;7344;50.864;4.362;2023-10-19T03:21:16;16.20;99.90
14517;DHT22;7344;50.864;4.362;2023-10-19T03:23:42;16.20;99.90
14517;DHT22;7344;50.864;4.362;2023-10-19T03:26:08;16.20;99.90
14517;DHT22;7344;50.864;4.362;2023-10-19T03:28:53;16.20;99.90
14517;DHT22;7344;50.864;4.362;2023-10-19T03:31:24;16.20;99.90
14517;DHT22;7344;50.864;4.362;2023-10-19T03:33:51;16.20;99.90
14517;DHT22;7344;50.864;4.362;2023-10-19T03:36:23;16.20;99.90
14517;DHT22;7344;50.864;4.362;2023-10-19T03:38:50;16.20;99.90
14517;DHT22;7344;50.864;4.362;2023-10-19T03:41:17;16.30;99.90
14517;DHT22;7344;50.864;4.362;2023-10-19T03:43:47;16.30;99.90
14517;DHT22;7344;50.864;4.362;2023-10-19T03:46:14;16.30;99.90
14517;DHT22;7344;50.864;4.362;2023-10-19T03:48:48;16.30;99.90
14517;DHT22;7344;50.864;4.362;2023-10-19T03:51:14;16.30;99.90
14517;DHT22;7344;50.864;4.362;2023-10-19T03:53:40;16.30;99.90
14517;DHT22;7344;50.864;4.362;2023-10-19T03:56:14;16.40;99.90
14517;DHT22;7344;50.864;4.362;2023-10-19T03:58:39;16.40;99.90
14517;DHT22;7344;50.864;4.362;2023-10-19T04:01:07;16.40;99.90
14517;DHT22;7344;50.864;4.362;2023-10-19T04:03:34;16.40;99.90
14517;DHT22;7344;50.864;4.362;2023-10-19T04:06:02;16.30;99.90
14517;DHT22;7344;50.864;4.362;2023-10-19T04:08:29;16.30;99.90
14517;DHT22;7344;50.864;4.362;2023-10-19T04:11:00;16.30;99.90
14517;DHT22;7344;50.864;4.362;2023-10-19T04:13:44;16.30;99.90
14517;DHT22;7344;50.864;4.362;2023-10-19T04:16:10;16.40;99.90
14517;DHT22;7344;50.864;4.362;2023-10-19T04:18:36;16.40;99.90
14517;DHT22;7344;50.864;4.362;2023-10-19T04:21:03;16.40;99.90
14517;DHT22;7344;50.864;4.362;2023-10-19T04:23:29;16.40;99.90
14517;DHT22;7344;50.864;4.362;2023-10-19T04:26:00;16.40;99.90
14517;DHT22;7344;50.864;4.362;2023-10-19T04:28:30;16.40;99.90
14517;DHT22;7344;50.864;4.362;2023-10-19T04:30:59;16.40;99.90
14517;DHT22;7344;50.864;4.362;2023-10-19T04:33:32;16.40;99.90
14517;DHT22;7344;50.864;4.362;2023-10-19T04:35:59;16.40;99.90
14517;DHT22;7344;50.864;4.362;2023-10-19T04:38:27;16.40;99.90
14517;DHT22;7344;50.864;4.362;2023-10-19T04:41:09;16.40;99.90
14517;DHT22;7344;50.864;4.362;2023-10-19T04:43:36;16.40;99.90
14517;DHT22;7344;50.864;4.362;2023-10-19T04:46:10;16.40;99.90
14517;DHT22;7344;50.864;4.362;2023-10-19T04:48:39;16.40;99.90
14517;DHT22;7344;50.864;4.362;2023-10-19T04:51:06;16.40;99.90
14517;DHT22;7344;50.864;4.362;2023-10-19T04:53:33;16.40;99.90
14517;DHT22;7344;50.864;4.362;2023-10-19T04:55:58;16.40;99.90
14517;DHT22;7344;50.864;4.362;2023-10-19T04:58:27;16.40;99.90
14517;DHT22;7344;50.864;4.362;2023-10-19T05:00:54;16.40;99.90
14517;DHT22;7344;50.864;4.362;2023-10-19T05:03:19;16.50;99.90
14517;DHT22;7344;50.864;4.362;2023-10-19T05:05:45;16.50;99.90
14517;DHT22;7344;50.864;4.362;2023-10-19T05:08:11;16.50;99.90
14517;DHT22;7344;50.864;4.362;2023-10-19T05:10:37;16.50;99.90
14517;DHT22;7344;50.864;4.362;2023-10-19T05:13:03;16.50;99.90
14517;DHT22;7344;50.864;4.362;2023-10-19T05:15:29;16.50;99.90
14517;DHT22;7344;50.864;4.362;2023-10-19T05:17:55;16.60;99.90
14517;DHT22;7344;50.864;4.362;2023-10-19T05:20:20;16.50;99.90
14517;DHT22;7344;50.864;4.362;2023-10-19T05:22:47;16.50;99.90
14517;DHT22;7344;50.864;4.362;2023-10-19T05:25:12;16.60;99.90
14517;DHT22;7344;50.864;4.362;2023-10-19T05:27:38;16.60;99.90
14517;DHT22;7344;50.864;4.362;2023-10-19T05:30:05;16.60;99.90
14517;DHT22;7344;50.864;4.362;2023-10-19T05:32:31;16.70;99.90
14517;DHT22;7344;50.864;4.362;2023-10-19T05:34:58;16.70;99.90
14517;DHT22;7344;50.864;4.362;2023-10-19T05:37:29;16.70;99.90
14517;DHT22;7344;50.864;4.362;2023-10-19T05:39:55;16.70;99.90
14517;DHT22;7344;50.864;4.362;2023-10-19T05:42:21;16.70;99.90
14517;DHT22;7344;50.864;4.362;2023-10-19T05:44:47;16.70;99.90
14517;DHT22;7344;50.864;4.362;2023-10-19T05:47:13;16.70;99.90
14517;DHT22;7344;50.864;4.362;2023-10-19T05:49:38;16.70;99.90
14517;DHT22;7344;50.864;4.362;2023-10-19T05:52:04;16.70;99.90
14517;DHT22;7344;50.864;4.362;2023-10-19T05:54:30;16.70;99.90
14517;DHT22;7344;50.864;4.362;2023-10-19T05:56:56;16.70;99.90
14517;DHT22;7344;50.864;4.362;2023-10-19T05:59:22;16.70;99.90
14517;DHT22;7344;50.864;4.362;2023-10-19T06:01:52;16.70;99.90
14517;DHT22;7344;50.864;4.362;2023-10-19T06:04:17;16.70;99.90
14517;DHT22;7344;50.864;4.362;2023-10-19T06:06:43;16.80;99.90
14517;DHT22;7344;50.864;4.362;2023-10-19T06:09:08;16.90;99.90
14517;DHT22;7344;50.864;4.362;2023-10-19T06:11:35;16.80;99.90
14517;DHT22;7344;50.864;4.362;2023-10-19T06:14:03;16.80;99.90
14517;DHT22;7344;50.864;4.362;2023-10-19T06:16:33;16.70;99.90
14517;DHT22;7344;50.864;4.362;2023-10-19T06:18:59;16.70;99.90
14517;DHT22;7344;50.864;4.362;2023-10-19T06:21:25;16.70;99.90
14517;DHT22;7344;50.864;4.362;2023-10-19T06:23:51;16.70;99.90
14517;DHT22;7344;50.864;4.362;2023-10-19T06:26:18;16.60;99.90
14517;DHT22;7344;50.864;4.362;2023-10-19T06:28:43;16.60;99.90
14517;DHT22;7344;50.864;4.362;2023-10-19T06:31:09;16.60;99.90
14517;DHT22;7344;50.864;4.362;2023-10-19T06:33:35;16.50;99.90
14517;DHT22;7344;50.864;4.362;2023-10-19T06:36:07;16.60;99.90
14517;DHT22;7344;50.864;4.362;2023-10-19T06:38:32;16.60;99.90
14517;DHT22;7344;50.864;4.362;2023-10-19T06:40:59;16.50;99.90
14517;DHT22;7344;50.864;4.362;2023-10-19T06:43:25;16.50;99.90
14517;DHT22;7344;50.864;4.362;2023-10-19T06:45:54;16.50;99.90
14517;DHT22;7344;50.864;4.362;2023-10-19T06:48:20;16.50;99.90
14517;DHT22;7344;50.864;4.362;2023-10-19T06:50:46;16.50;99.90
14517;DHT22;7344;50.864;4.362;2023-10-19T06:53:12;16.50;99.90
14517;DHT22;7344;50.864;4.362;2023-10-19T06:55:37;16.50;99.90
14517;DHT22;7344;50.864;4.362;2023-10-19T06:58:03;16.40;99.90
14517;DHT22;7344;50.864;4.362;2023-10-19T07:00:30;16.50;99.90
14517;DHT22;7344;50.864;4.362;2023-10-19T07:02:57;16.70;99.90
14517;DHT22;7344;50.864;4.362;2023-10-19T07:05:23;17.00;99.90
14517;DHT22;7344;50.864;4.362;2023-10-19T07:07:50;17.70;99.90
14517;DHT22;7344;50.864;4.362;2023-10-19T07:10:21;18.00;99.90
14517;DHT22;7344;50.864;4.362;2023-10-19T07:12:50;17.90;99.90
14517;DHT22;7344;50.864;4.362;2023-10-19T07:15:16;18.10;99.90
14517;DHT22;7344;50.864;4.362;2023-10-19T07:17:46;18.30;99.90
14517;DHT22;7344;50.864;4.362;2023-10-19T07:20:14;18.70;99.90
14517;DHT22;7344;50.864;4.362;2023-10-19T07:22:59;18.60;99.90
14517;DHT22;7344;50.864;4.362;2023-10-19T07:25:30;18.10;99.90
14517;DHT22;7344;50.864;4.362;2023-10-19T07:27:56;17.80;99.90
14517;DHT22;7344;50.864;4.362;2023-10-19T07:30:25;17.60;99.90
14517;DHT22;7344;50.864;4.362;2023-10-19T07:32:54;17.40;99.90
14517;DHT22;7344;50.864;4.362;2023-10-19T07:35:21;17.40;99.90
14517;DHT22;7344;50.864;4.362;2023-10-19T07:37:48;17.30;99.90
14517;DHT22;7344;50.864;4.362;2023-10-19T07:40:15;17.00;99.90
14517;DHT22;7344;50.864;4.362;2023-10-19T07:42:44;17.00;99.90
14517;DHT22;7344;50.864;4.362;2023-10-19T07:45:09;17.00;99.90
14517;DHT22;7344;50.864;4.362;2023-10-19T07:47:40;17.10;99.90
14517;DHT22;7344;50.864;4.362;2023-10-19T07:50:07;17.10;99.90
14517;DHT22;7344;50.864;4.362;2023-10-19T07:52:38;17.10;99.90
14517;DHT22;7344;50.864;4.362;2023-10-19T07:55:05;17.20;99.90
14517;DHT22;7344;50.864;4.362;2023-10-19T07:57:32;17.10;99.90
14517;DHT22;7344;50.864;4.362;2023-10-19T07:59:57;17.20;99.90
14517;DHT22;7344;50.864;4.362;2023-10-19T08:02:24;17.20;99.90
14517;DHT22;7344;50.864;4.362;2023-10-19T08:04:50;17.20;99.90
14517;DHT22;7344;50.864;4.362;2023-10-19T08:07:17;17.30;99.90
14517;DHT22;7344;50.864;4.362;2023-10-19T08:09:43;17.20;99.90
14517;DHT22;7344;50.864;4.362;2023-10-19T08:12:09;17.30;99.90
14517;DHT22;7344;50.864;4.362;2023-10-19T08:14:35;17.40;99.90
14517;DHT22;7344;50.864;4.362;2023-10-19T08:17:01;17.60;99.90
14517;DHT22;7344;50.864;4.362;2023-10-19T08:19:29;17.80;99.90
14517;DHT22;7344;50.864;4.362;2023-10-19T08:21:56;18.10;99.90
14517;DHT22;7344;50.864;4.362;2023-10-19T08:24:23;18.30;99.90
14517;DHT22;7344;50.864;4.362;2023-10-19T08:26:48;18.70;99.90
14517;DHT22;7344;50.864;4.362;2023-10-19T08:29:16;19.30;99.90
14517;DHT22;7344;50.864;4.362;2023-10-19T08:31:44;19.50;99.90
14517;DHT22;7344;50.864;4.362;2023-10-19T08:34:13;19.40;99.90
14517;DHT22;7344;50.864;4.362;2023-10-19T08:36:39;19.40;99.90
14517;DHT22;7344;50.864;4.362;2023-10-19T08:39:10;19.60;99.90
14517;DHT22;7344;50.864;4.362;2023-10-19T08:41:39;19.60;99.90
14517;DHT22;7344;50.864;4.362;2023-10-19T08:44:06;19.50;99.90
14517;DHT22;7344;50.864;4.362;2023-10-19T08:46:42;19.00;99.90
14517;DHT22;7344;50.864;4.362;2023-10-19T08:49:12;19.00;99.90
14517;DHT22;7344;50.864;4.362;2023-10-19T08:51:38;18.70;99.90
14517;DHT22;7344;50.864;4.362;2023-10-19T08:54:07;18.40;99.90
14517;DHT22;7344;50.864;4.362;2023-10-19T08:56:36;18.40;99.90
14517;DHT22;7344;50.864;4.362;2023-10-19T08:59:02;18.30;99.90
14517;DHT22;7344;50.864;4.362;2023-10-19T09:01:28;18.20;99.90
14517;DHT22;7344;50.864;4.362;2023-10-19T09:03:58;18.20;99.90
14517;DHT22;7344;50.864;4.362;2023-10-19T09:06:24;18.10;99.90
14517;DHT22;7344;50.864;4.362;2023-10-19T09:08:50;18.10;99.90
14517;DHT22;7344;50.864;4.362;2023-10-19T09:11:16;18.00;99.90
14517;DHT22;7344;50.864;4.362;2023-10-19T09:13:50;18.10;99.90
14517;DHT22;7344;50.864;4.362;2023-10-19T09:16:17;18.10;99.90
14517;DHT22;7344;50.864;4.362;2023-10-19T09:18:44;18.10;99.90
14517;DHT22;7344;50.864;4.362;2023-10-19T09:21:16;18.20;99.90
14517;DHT22;7344;50.864;4.362;2023-10-19T09:23:50;18.20;99.90
14517;DHT22;7344;50.864;4.362;2023-10-19T09:26:17;18.10;99.90
14517;DHT22;7344;50.864;4.362;2023-10-19T09:28:46;18.00;99.90
14517;DHT22;7344;50.864;4.362;2023-10-19T09:31:13;18.00;99.90
14517;DHT22;7344;50.864;4.362;2023-10-19T09:33:40;17.90;99.90
14517;DHT22;7344;50.864;4.362;2023-10-19T09:36:06;18.00;99.90
14517;DHT22;7344;50.864;4.362;2023-10-19T09:38:39;18.10;99.90
14517;DHT22;7344;50.864;4.362;2023-10-19T09:41:07;18.10;99.90
14517;DHT22;7344;50.864;4.362;2023-10-19T09:43:45;18.20;99.90
14517;DHT22;7344;50.864;4.362;2023-10-19T09:46:12;18.20;99.90
14517;DHT22;7344;50.864;4.362;2023-10-19T09:48:45;18.20;99.90
14517;DHT22;7344;50.864;4.362;2023-10-19T09:51:12;18.30;99.90
14517;DHT22;7344;50.864;4.362;2023-10-19T09:53:39;18.30;99.90
14517;DHT22;7344;50.864;4.362;2023-10-19T09:56:06;18.40;99.90
14517;DHT22;7344;50.864;4.362;2023-10-19T09:58:48;18.40;99.90
14517;DHT22;7344;50.864;4.362;2023-10-19T10:01:15;18.40;99.90
14517;DHT22;7344;50.864;4.362;2023-10-19T10:03:47;18.50;99.90
14517;DHT22;7344;50.864;4.362;2023-10-19T10:06:15;18.70;99.90
14517;DHT22;7344;50.864;4.362;2023-10-19T10:08:43;18.80;99.90
14517;DHT22;7344;50.864;4.362;2023-10-19T10:11:24;19.10;99.90
14517;DHT22;7344;50.864;4.362;2023-10-19T10:13:55;19.30;99.90
14517;DHT22;7344;50.864;4.362;2023-10-19T10:16:28;19.50;99.90
14517;DHT22;7344;50.864;4.362;2023-10-19T10:18:56;19.70;99.90
14517;DHT22;7344;50.864;4.362;2023-10-19T10:21:24;19.80;99.90
14517;DHT22;7344;50.864;4.362;2023-10-19T10:23:53;19.90;99.90
14517;DHT22;7344;50.864;4.362;2023-10-19T10:26:22;19.80;99.90
14517;DHT22;7344;50.864;4.362;2023-10-19T10:29:12;19.80;99.90
14517;DHT22;7344;50.864;4.362;2023-10-19T10:31:44;19.80;99.90
14517;DHT22;7344;50.864;4.362;2023-10-19T10:34:11;19.80;99.90
14517;DHT22;7344;50.864;4.362;2023-10-19T10:37:00;19.80;99.90
14517;DHT22;7344;50.864;4.362;2023-10-19T10:39:30;19.70;99.90
14517;DHT22;7344;50.864;4.362;2023-10-19T10:42:01;19.60;99.90
14517;DHT22;7344;50.864;4.362;2023-10-19T10:44:45;19.50;99.90
14517;DHT22;7344;50.864;4.362;2023-10-19T10:47:16;19.50;99.90
14517;DHT22;7344;50.864;4.362;2023-10-19T10:52:34;19.10;99.90
14517;DHT22;7344;50.864;4.362;2023-10-19T10:55:10;19.00;99.90
14517;DHT22;7344;50.864;4.362;2023-10-19T10:57:37;19.00;99.90
14517;DHT22;7344;50.864;4.362;2023-10-19T11:00:07;19.00;99.90
14517;DHT22;7344;50.864;4.362;2023-10-19T11:02:35;18.90;99.90
14517;DHT22;7344;50.864;4.362;2023-10-19T11:05:02;18.90;99.90
14517;DHT22;7344;50.864;4.362;2023-10-19T11:07:28;18.80;99.90
14517;DHT22;7344;50.864;4.362;2023-10-19T11:09:55;18.70;99.90
14517;DHT22;7344;50.864;4.362;2023-10-19T11:12:21;18.60;99.90
14517;DHT22;7344;50.864;4.362;2023-10-19T11:14:56;18.60;99.90
14517;DHT22;7344;50.864;4.362;2023-10-19T11:17:24;18.50;99.90
14517;DHT22;7344;50.864;4.362;2023-10-19T11:19:56;18.50;99.90
14517;DHT22;7344;50.864;4.362;2023-10-19T11:22:23;18.60;99.90
14517;DHT22;7344;50.864;4.362;2023-10-19T11:24:51;18.50;99.90
14517;DHT22;7344;50.864;4.362;2023-10-19T11:27:28;18.50;99.90
14517;DHT22;7344;50.864;4.362;2023-10-19T11:29:57;18.70;99.90
14517;DHT22;7344;50.864;4.362;2023-10-19T11:32:35;18.60;99.90
14517;DHT22;7344;50.864;4.362;2023-10-19T11:35:01;18.70;99.90
14517;DHT22;7344;50.864;4.362;2023-10-19T11:37:26;18.70;99.90
14517;DHT22;7344;50.864;4.362;2023-10-19T11:39:52;18.70;99.90
14517;DHT22;7344;50.864;4.362;2023-10-19T11:42:18;18.60;99.90
14517;DHT22;7344;50.864;4.362;2023-10-19T11:44:44;18.60;99.90
14517;DHT22;7344;50.864;4.362;2023-10-19T11:47:10;18.60;99.90
14517;DHT22;7344;50.864;4.362;2023-10-19T11:49:36;18.60;99.90
14517;DHT22;7344;50.864;4.362;2023-10-19T11:52:06;18.60;99.90
14517;DHT22;7344;50.864;4.362;2023-10-19T11:54:33;18.60;99.90
14517;DHT22;7344;50.864;4.362;2023-10-19T11:56:59;18.60;99.90
14517;DHT22;7344;50.864;4.362;2023-10-19T11:59:24;18.60;99.90
14517;DHT22;7344;50.864;4.362;2023-10-19T12:01:52;18.70;99.90
14517;DHT22;7344;50.864;4.362;2023-10-19T12:04:17;18.80;99.90
14517;DHT22;7344;50.864;4.362;2023-10-19T12:06:43;18.70;99.90
14517;DHT22;7344;50.864;4.362;2023-10-19T12:09:11;18.60;99.90
14517;DHT22;7344;50.864;4.362;2023-10-19T12:11:43;18.50;99.90
14517;DHT22;7344;50.864;4.362;2023-10-19T12:14:10;18.50;99.90
14517;DHT22;7344;50.864;4.362;2023-10-19T12:16:40;18.40;99.90
14517;DHT22;7344;50.864;4.362;2023-10-19T12:19:06;18.40;99.90
14517;DHT22;7344;50.864;4.362;2023-10-19T12:21:35;18.40;99.90
14517;DHT22;7344;50.864;4.362;2023-10-19T12:24:03;18.40;99.90
14517;DHT22;7344;50.864;4.362;2023-10-19T12:26:30;18.40;99.90
14517;DHT22;7344;50.864;4.362;2023-10-19T12:28:56;18.30;99.90
14517;DHT22;7344;50.864;4.362;2023-10-19T12:31:22;18.30;99.90
14517;DHT22;7344;50.864;4.362;2023-10-19T12:33:48;18.20;99.90
14517;DHT22;7344;50.864;4.362;2023-10-19T12:36:14;18.10;99.90
14517;DHT22;7344;50.864;4.362;2023-10-19T12:38:58;18.10;99.90
14517;DHT22;7344;50.864;4.362;2023-10-19T12:41:24;18.20;99.90
14517;DHT22;7344;50.864;4.362;2023-10-19T12:43:50;18.30;99.90
14517;DHT22;7344;50.864;4.362;2023-10-19T12:46:23;18.60;99.90
14517;DHT22;7344;50.864;4.362;2023-10-19T12:48:55;18.70;99.90
14517;DHT22;7344;50.864;4.362;2023-10-19T12:51:22;19.00;99.90
14517;DHT22;7344;50.864;4.362;2023-10-19T12:53:51;19.20;99.90
14517;DHT22;7344;50.864;4.362;2023-10-19T12:56:18;19.20;99.90
14517;DHT22;7344;50.864;4.362;2023-10-19T12:58:44;19.30;99.90
14517;DHT22;7344;50.864;4.362;2023-10-19T13:01:09;19.30;99.90
14517;DHT22;7344;50.864;4.362;2023-10-19T13:03:45;19.40;99.90
14517;DHT22;7344;50.864;4.362;2023-10-19T13:06:12;19.50;99.90
14517;DHT22;7344;50.864;4.362;2023-10-19T13:08:38;19.40;99.90
14517;DHT22;7344;50.864;4.362;2023-10-19T13:11:06;19.40;99.90
14517;DHT22;7344;50.864;4.362;2023-10-19T13:13:32;19.30;99.90
14517;DHT22;7344;50.864;4.362;2023-10-19T13:15:57;19.20;99.90
14517;DHT22;7344;50.864;4.362;2023-10-19T13:18:23;19.10;99.90
14517;DHT22;7344;50.864;4.362;2023-10-19T13:20:55;19.10;99.90
14517;DHT22;7344;50.864;4.362;2023-10-19T13:23:22;19.10;99.90
14517;DHT22;7344;50.864;4.362;2023-10-19T13:25:51;19.10;99.90
14517;DHT22;7344;50.864;4.362;2023-10-19T13:28:23;19.10;99.90
14517;DHT22;7344;50.864;4.362;2023-10-19T13:30:54;19.10;99.90
14517;DHT22;7344;50.864;4.362;2023-10-19T13:33:21;19.00;99.90
14517;DHT22;7344;50.864;4.362;2023-10-19T13:35:47;19.10;99.90
14517;DHT22;7344;50.864;4.362;2023-10-19T13:38:17;19.20;99.90
14517;DHT22;7344;50.864;4.362;2023-10-19T13:40:43;19.10;99.90
14517;DHT22;7344;50.864;4.362;2023-10-19T13:43:11;19.10;99.90
14517;DHT22;7344;50.864;4.362;2023-10-19T13:45:40;19.10;99.90
14517;DHT22;7344;50.864;4.362;2023-10-19T13:48:07;19.20;99.90
14517;DHT22;7344;50.864;4.362;2023-10-19T13:50:35;19.20;99.90
14517;DHT22;7344;50.864;4.362;2023-10-19T13:53:02;19.20;99.90
14517;DHT22;7344;50.864;4.362;2023-10-19T13:55:30;19.10;99.90
14517;DHT22;7344;50.864;4.362;2023-10-19T13:57:56;19.10;99.90
14517;DHT22;7344;50.864;4.362;2023-10-19T14:00:23;19.10;99.90
14517;DHT22;7344;50.864;4.362;2023-10-19T14:03:19;19.10;99.90
14517;DHT22;7344;50.864;4.362;2023-10-19T14:05:46;19.30;99.90
14517;DHT22;7344;50.864;4.362;2023-10-19T14:08:17;19.20;99.90
14517;DHT22;7344;50.864;4.362;2023-10-19T14:10:43;19.10;99.90
14517;DHT22;7344;50.864;4.362;2023-10-19T14:13:09;19.10;99.90
14517;DHT22;7344;50.864;4.362;2023-10-19T14:15:37;19.10;99.90
14517;DHT22;7344;50.864;4.362;2023-10-19T14:18:03;19.10;99.90
14517;DHT22;7344;50.864;4.362;2023-10-19T14:20:30;19.10;99.90
14517;DHT22;7344;50.864;4.362;2023-10-19T14:22:56;19.20;99.90
14517;DHT22;7344;50.864;4.362;2023-10-19T14:25:22;19.20;99.90
14517;DHT22;7344;50.864;4.362;2023-10-19T14:27:50;19.30;99.90
14517;DHT22;7344;50.864;4.362;2023-10-19T14:30:21;19.30;99.90
14517;DHT22;7344;50.864;4.362;2023-10-19T14:32:47;19.20;99.90
14517;DHT22;7344;50.864;4.362;2023-10-19T14:35:15;19.20;99.90
14517;DHT22;7344;50.864;4.362;2023-10-19T14:37:51;19.20;99.90
14517;DHT22;7344;50.864;4.362;2023-10-19T14:40:21;19.20;99.90
14517;DHT22;7344;50.864;4.362;2023-10-19T14:42:48;19.20;99.90
14517;DHT22;7344;50.864;4.362;2023-10-19T14:45:15;19.20;99.90
14517;DHT22;7344;50.864;4.362;2023-10-19T14:47:46;19.20;99.90
14517;DHT22;7344;50.864;4.362;2023-10-19T14:50:12;19.20;99.90
14517;DHT22;7344;50.864;4.362;2023-10-19T14:52:45;19.30;99.90
14517;DHT22;7344;50.864;4.362;2023-10-19T14:55:12;19.30;99.90
14517;DHT22;7344;50.864;4.362;2023-10-19T14:57:42;19.30;99.90
14517;DHT22;7344;50.864;4.362;2023-10-19T15:00:09;19.30;99.90
14517;DHT22;7344;50.864;4.362;2023-10-19T15:02:48;19.30;99.90
14517;DHT22;7344;50.864;4.362;2023-10-19T15:05:15;19.40;99.90
14517;DHT22;7344;50.864;4.362;2023-10-19T15:07:47;19.40;99.90
14517;DHT22;7344;50.864;4.362;2023-10-19T15:10:17;19.30;99.90
14517;DHT22;7344;50.864;4.362;2023-10-19T15:12:43;19.30;99.90
14517;DHT22;7344;50.864;4.362;2023-10-19T15:15:10;19.30;99.90
14517;DHT22;7344;50.864;4.362;2023-10-19T15:17:39;19.30;99.90
14517;DHT22;7344;50.864;4.362;2023-10-19T15:20:06;19.30;99.90
14517;DHT22;7344;50.864;4.362;2023-10-19T15:22:32;19.30;99.90
14517;DHT22;7344;50.864;4.362;2023-10-19T15:24:59;19.20;99.90
14517;DHT22;7344;50.864;4.362;2023-10-19T15:27:25;19.30;99.90
14517;DHT22;7344;50.864;4.362;2023-10-19T15:29:50;19.20;99.90
14517;DHT22;7344;50.864;4.362;2023-10-19T15:32:16;19.20;99.90
14517;DHT22;7344;50.864;4.362;2023-10-19T15:34:42;19.20;99.90
14517;DHT22;7344;50.864;4.362;2023-10-19T15:37:08;19.20;99.90
14517;DHT22;7344;50.864;4.362;2023-10-19T15:39:34;19.10;99.90
14517;DHT22;7344;50.864;4.362;2023-10-19T15:42:00;19.10;99.90
14517;DHT22;7344;50.864;4.362;2023-10-19T15:44:26;19.00;99.90
14517;DHT22;7344;50.864;4.362;2023-10-19T15:46:51;19.00;99.90
14517;DHT22;7344;50.864;4.362;2023-10-19T15:49:18;19.00;99.90
14517;DHT22;7344;50.864;4.362;2023-10-19T15:51:45;18.90;99.90
14517;DHT22;7344;50.864;4.362;2023-10-19T15:54:11;18.90;99.90
14517;DHT22;7344;50.864;4.362;2023-10-19T15:56:37;18.90;99.90
14517;DHT22;7344;50.864;4.362;2023-10-19T15:59:03;18.90;99.90
14517;DHT22;7344;50.864;4.362;2023-10-19T16:01:29;18.90;99.90